Time;durP1;ratioP1;P1;durP2;ratioP2;P2;SDS_P1;SDS_P2;PMS_P1;PMS_P2;Temp;Humidity;BMP_temperature;BMP_pressure;BME280_temperature;BME280_humidity;BME280_pressure;Samples;Min_cycle;Max_cycle;Signal;HPM_P1;HPM_P2
2023/03/10 00:01:15;;;;;;;23.65;13.25;;;1.10;99.90;;;;;;5034079;28;20040;-33
2023/03/10 00:03:41;;;;;;;24.42;13.38;;;1.10;99.90;;;;;;5033898;28;20509;-33
2023/03/10 00:06:09;;;;;;;21.83;12.50;;;1.10;99.90;;;;;;5034000;28;20131;-33
2023/03/10 00:08:34;;;;;;;24.10;13.18;;;1.10;99.90;;;;;;5037829;28;20446;-33
2023/03/10 00:11:00;;;;;;;21.65;13.23;;;1.10;99.90;;;;;;5037579;28;20072;-33
2023/03/10 00:13:26;;;;;;;21.48;12.50;;;1.10;99.90;;;;;;5037386;28;20037;-33
2023/03/10 00:15:52;;;;;;;21.60;12.48;;;1.10;99.90;;;;;;5037323;28;20044;-33
2023/03/10 00:18:18;;;;;;;23.13;12.57;;;1.10;99.90;;;;;;5037597;28;20044;-33
2023/03/10 00:20:44;;;;;;;19.58;11.88;;;1.10;99.90;;;;;;5034073;28;20037;-33
2023/03/10 00:23:09;;;;;;;21.05;12.30;;;1.10;99.90;;;;;;5017495;28;20037;-33
2023/03/10 00:25:35;;;;;;;19.00;12.13;;;1.10;99.90;;;;;;5017726;28;20180;-33
2023/03/10 00:28:01;;;;;;;19.48;11.13;;;1.10;99.90;;;;;;5017502;28;20402;-33
2023/03/10 00:30:28;;;;;;;19.15;11.60;;;1.10;99.90;;;;;;5017369;28;20046;-34
2023/03/10 00:32:54;;;;;;;19.23;11.73;;;1.10;99.90;;;;;;5017136;28;20120;-33
2023/03/10 00:35:20;;;;;;;17.70;11.00;;;1.10;99.90;;;;;;5017424;28;20163;-33
2023/03/10 00:37:45;;;;;;;21.65;11.75;;;1.10;99.90;;;;;;5017162;28;20053;-34
2023/03/10 00:40:13;;;;;;;19.50;11.90;;;1.00;99.90;;;;;;5017358;28;20033;-33
2023/03/10 00:42:39;;;;;;;20.67;11.88;;;1.10;99.90;;;;;;5000803;28;20045;-33
2023/03/10 00:45:06;;;;;;;18.95;11.73;;;1.10;99.90;;;;;;5017009;28;20052;-33
2023/03/10 00:47:32;;;;;;;19.42;10.95;;;1.10;99.90;;;;;;5016878;28;20042;-33
2023/03/10 00:49:58;;;;;;;19.52;11.63;;;1.10;99.90;;;;;;5000498;28;20042;-33
2023/03/10 00:52:24;;;;;;;20.42;12.20;;;1.10;99.90;;;;;;5034229;28;20175;-34
2023/03/10 00:54:50;;;;;;;17.98;11.18;;;1.00;99.90;;;;;;5036671;28;20032;-35
2023/03/10 00:57:16;;;;;;;17.95;10.85;;;1.10;99.90;;;;;;5033884;28;20059;-35
2023/03/10 00:59:42;;;;;;;18.63;10.65;;;1.10;99.90;;;;;;5024291;28;20041;-35
2023/03/10 01:02:08;;;;;;;19.55;11.13;;;1.10;99.90;;;;;;5030114;28;20094;-35
2023/03/10 01:04:34;;;;;;;17.95;11.43;;;1.10;99.90;;;;;;5035132;28;20048;-35
2023/03/10 01:06:59;;;;;;;20.15;11.43;;;1.10;99.90;;;;;;5031639;28;20457;-35
2023/03/10 01:09:25;;;;;;;21.23;12.48;;;1.10;99.90;;;;;;5034029;28;20075;-35
2023/03/10 01:11:51;;;;;;;17.67;11.27;;;1.10;99.90;;;;;;5027050;28;20033;-35
2023/03/10 01:14:18;;;;;;;18.30;11.27;;;1.10;99.90;;;;;;5032849;28;20045;-35
2023/03/10 01:16:43;;;;;;;18.63;11.25;;;1.10;99.90;;;;;;5035649;28;20405;-35
2023/03/10 01:19:09;;;;;;;17.02;10.32;;;1.10;99.90;;;;;;5028780;28;20041;-37
2023/03/10 01:21:37;;;;;;;18.77;10.68;;;1.10;99.90;;;;;;5045845;28;20516;-34
2023/03/10 01:24:04;;;;;;;17.77;11.10;;;1.10;99.90;;;;;;5036301;28;20040;-35
2023/03/10 01:26:29;;;;;;;19.75;11.38;;;1.10;99.90;;;;;;5053915;28;20048;-34
2023/03/10 01:28:55;;;;;;;20.20;11.75;;;1.10;99.90;;;;;;5028590;28;20041;-34
2023/03/10 01:31:21;;;;;;;18.27;11.32;;;1.10;99.90;;;;;;5035834;28;20041;-34
2023/03/10 01:33:47;;;;;;;16.73;10.93;;;1.10;99.90;;;;;;5035993;28;20084;-34
2023/03/10 01:36:20;;;;;;;19.02;11.70;;;1.10;99.90;;;;;;5052356;28;20036;-34
2023/03/10 01:38:46;;;;;;;18.88;10.82;;;1.10;99.90;;;;;;5035944;28;20516;-34
2023/03/10 01:41:12;;;;;;;18.08;10.65;;;1.10;99.90;;;;;;5035615;28;20119;-33
2023/03/10 01:43:42;;;;;;;17.33;10.57;;;1.10;99.90;;;;;;5035586;28;20519;-39
2023/03/10 01:46:20;;;;;;;19.20;11.30;;;1.10;99.90;;;;;;5035694;28;20048;-33
2023/03/10 01:48:46;;;;;;;17.02;10.85;;;1.10;99.90;;;;;;5035536;28;20048;-34
2023/03/10 01:51:11;;;;;;;17.17;11.02;;;1.10;99.90;;;;;;5035819;28;20037;-34
2023/03/10 01:53:38;;;;;;;19.15;12.82;;;1.10;99.90;;;;;;5054112;28;20040;-35
2023/03/10 01:56:05;;;;;;;18.23;11.07;;;1.10;99.90;;;;;;5055226;28;20033;-34
2023/03/10 01:58:37;;;;;;;18.83;11.30;;;1.10;99.90;;;;;;5055469;28;20459;-34
2023/03/10 02:01:04;;;;;;;18.52;11.68;;;1.10;99.90;;;;;;5045888;28;20083;-34
2023/03/10 02:03:36;;;;;;;18.67;11.82;;;1.10;99.90;;;;;;5020175;28;20048;-34
2023/03/10 02:06:10;;;;;;;18.83;12.13;;;1.10;99.90;;;;;;5035004;28;20045;-34
2023/03/10 02:08:43;;;;;;;17.65;10.43;;;1.10;99.90;;;;;;5035215;28;20052;-34
2023/03/10 02:11:10;;;;;;;19.95;12.82;;;1.10;99.90;;;;;;5035394;28;20095;-34
2023/03/10 02:13:35;;;;;;;21.27;12.48;;;1.10;99.90;;;;;;5035096;28;20089;-34
2023/03/10 02:16:01;;;;;;;17.80;12.02;;;1.10;99.90;;;;;;5035356;28;20536;-34
2023/03/10 02:18:29;;;;;;;18.75;12.13;;;1.10;99.90;;;;;;5034848;28;20397;-34
2023/03/10 02:21:11;;;;;;;19.02;12.27;;;1.10;99.90;;;;;;5030662;28;20033;-34
2023/03/10 02:23:51;;;;;;;21.20;12.65;;;1.10;99.90;;;;;;5015251;28;20056;-33
2023/03/10 02:26:50;;;;;;;18.23;11.25;;;1.10;99.90;;;;;;5022087;28;20063;-34
2023/03/10 02:29:25;;;;;;;19.20;11.88;;;1.10;99.90;;;;;;5018591;28;20064;-34
2023/03/10 02:31:53;;;;;;;17.55;11.48;;;1.10;99.90;;;;;;5015221;28;20534;-34
2023/03/10 02:34:19;;;;;;;19.80;11.90;;;1.10;99.90;;;;;;5017036;28;20413;-34
2023/03/10 02:36:45;;;;;;;18.85;11.77;;;1.10;99.90;;;;;;5044466;28;20116;-34
2023/03/10 02:39:10;;;;;;;17.83;11.13;;;1.00;99.90;;;;;;5014685;28;20041;-34
2023/03/10 02:41:38;;;;;;;17.70;11.43;;;1.10;99.90;;;;;;5032630;28;20045;-34
2023/03/10 02:44:09;;;;;;;19.08;11.32;;;1.00;99.90;;;;;;5014929;28;20471;-34
2023/03/10 02:46:35;;;;;;;19.58;12.00;;;1.00;99.90;;;;;;5019690;28;20387;-34
2023/03/10 02:49:02;;;;;;;19.15;11.75;;;1.00;99.90;;;;;;5034435;28;20041;-34
2023/03/10 02:51:38;;;;;;;19.27;10.82;;;1.00;99.90;;;;;;5031201;28;20041;-34
2023/03/10 02:54:06;;;;;;;17.38;10.25;;;1.00;99.90;;;;;;5014425;28;20073;-33
2023/03/10 02:56:33;;;;;;;17.27;10.35;;;1.00;99.90;;;;;;5017172;28;20041;-34
2023/03/10 02:59:00;;;;;;;17.10;10.13;;;1.00;99.90;;;;;;5017602;28;20048;-34
2023/03/10 03:01:28;;;;;;;17.90;10.77;;;1.00;99.90;;;;;;5033325;28;20121;-34
2023/03/10 03:03:55;;;;;;;17.35;10.38;;;1.00;99.90;;;;;;5014371;28;20041;-34
2023/03/10 03:06:20;;;;;;;16.55;9.70;;;1.00;99.90;;;;;;5014800;28;20485;-34
2023/03/10 03:08:46;;;;;;;18.15;11.13;;;1.00;99.90;;;;;;5028781;28;20033;-33
2023/03/10 03:11:12;;;;;;;17.02;9.65;;;1.00;99.90;;;;;;5014775;28;20053;-34
2023/03/10 03:13:38;;;;;;;15.57;9.63;;;1.00;99.90;;;;;;5031949;28;20689;-34
2023/03/10 03:16:08;;;;;;;16.83;10.50;;;1.00;99.90;;;;;;5024517;28;20429;-34
2023/03/10 03:18:35;;;;;;;18.65;10.30;;;1.10;99.90;;;;;;5016602;28;20558;-34
2023/03/10 03:21:06;;;;;;;16.27;10.27;;;1.00;99.90;;;;;;5034707;28;20037;-34
2023/03/10 03:23:33;;;;;;;16.63;10.88;;;1.00;99.90;;;;;;5034114;28;20052;-34
2023/03/10 03:25:58;;;;;;;18.08;10.57;;;1.00;99.90;;;;;;5034351;28;20555;-34
2023/03/10 03:28:24;;;;;;;17.15;10.95;;;1.00;99.90;;;;;;5024923;28;20041;-34
2023/03/10 03:30:50;;;;;;;17.15;10.95;;;1.00;99.90;;;;;;5018194;28;20040;-34
2023/03/10 03:33:16;;;;;;;17.50;11.05;;;1.00;99.90;;;;;;5020686;28;20167;-34
2023/03/10 03:35:42;;;;;;;17.08;11.05;;;1.00;99.90;;;;;;5033784;28;20040;-34
2023/03/10 03:38:08;;;;;;;19.35;12.00;;;1.00;99.90;;;;;;5034089;28;20037;-34
2023/03/10 03:40:36;;;;;;;18.67;11.55;;;1.00;99.90;;;;;;5034036;28;20037;-34
2023/03/10 03:43:03;;;;;;;18.42;11.68;;;1.00;99.90;;;;;;5037363;28;20469;-34
2023/03/10 03:45:31;;;;;;;21.15;13.07;;;1.00;99.90;;;;;;5037775;28;20045;-34
2023/03/10 03:47:56;;;;;;;21.60;12.80;;;1.00;99.90;;;;;;5037997;28;20490;-34
2023/03/10 03:50:22;;;;;;;23.65;13.38;;;1.00;99.90;;;;;;5038062;28;20056;-34
2023/03/10 03:52:48;;;;;;;22.77;13.30;;;1.00;99.90;;;;;;5037845;28;20524;-34
2023/03/10 03:55:15;;;;;;;26.67;14.50;;;1.00;99.90;;;;;;5037623;28;20040;-34
2023/03/10 03:57:41;;;;;;;24.05;14.60;;;1.00;99.90;;;;;;5037816;28;20033;-34
2023/03/10 04:00:11;;;;;;;26.70;14.13;;;1.00;99.90;;;;;;5033297;28;20197;-34
2023/03/10 04:02:36;;;;;;;26.05;15.15;;;1.00;99.90;;;;;;5017912;28;20041;-34
2023/03/10 04:05:03;;;;;;;24.60;14.75;;;1.00;99.90;;;;;;5034758;28;20489;-34
2023/03/10 04:07:29;;;;;;;22.98;14.00;;;1.10;99.90;;;;;;5037507;28;20048;-34
2023/03/10 04:09:56;;;;;;;23.90;14.52;;;1.00;99.90;;;;;;5029598;28;20037;-34
2023/03/10 04:12:22;;;;;;;25.52;14.68;;;1.10;99.90;;;;;;5035378;28;20073;-33
2023/03/10 04:14:48;;;;;;;25.75;15.40;;;1.00;99.90;;;;;;5039611;28;20532;-35
2023/03/10 04:17:13;;;;;;;26.35;14.50;;;1.10;99.90;;;;;;5041705;28;20033;-35
2023/03/10 04:19:39;;;;;;;26.25;13.10;;;1.10;99.90;;;;;;5032530;28;20071;-34
2023/03/10 04:22:05;;;;;;;23.42;14.82;;;1.10;99.90;;;;;;5037140;28;20041;-34
2023/03/10 04:24:30;;;;;;;23.73;13.32;;;1.10;99.90;;;;;;5036479;28;20375;-35
2023/03/10 04:26:56;;;;;;;25.83;15.05;;;1.10;99.90;;;;;;5036951;28;20044;-35
2023/03/10 04:29:23;;;;;;;21.85;13.77;;;1.10;99.90;;;;;;5036746;28;20398;-35
2023/03/10 04:31:50;;;;;;;23.02;13.95;;;1.10;99.90;;;;;;5036515;28;20406;-34
2023/03/10 04:34:16;;;;;;;21.65;13.20;;;1.10;99.90;;;;;;5022630;28;20387;-35
2023/03/10 04:36:42;;;;;;;24.17;13.93;;;1.00;99.90;;;;;;5037215;28;20087;-34
2023/03/10 04:41:42;;;;;;;22.38;13.32;;;1.00;99.90;;;;;;5038975;28;20045;-33
2023/03/10 04:44:08;;;;;;;19.90;12.52;;;1.00;99.90;;;;;;5024843;28;20091;-33
2023/03/10 04:46:35;;;;;;;18.35;11.20;;;1.00;99.90;;;;;;5035239;28;20375;-33
2023/03/10 04:49:01;;;;;;;17.88;11.55;;;1.10;99.90;;;;;;5036458;28;20037;-34
2023/03/10 04:51:27;;;;;;;18.20;11.43;;;1.00;99.90;;;;;;5034570;28;20398;-33
2023/03/10 04:53:53;;;;;;;18.65;11.88;;;1.10;99.90;;;;;;5030209;28;20040;-33
2023/03/10 04:56:19;;;;;;;17.45;10.30;;;1.00;99.90;;;;;;5035957;28;20033;-33
2023/03/10 04:58:44;;;;;;;17.10;10.60;;;1.00;99.90;;;;;;5030937;28;20041;-33
2023/03/10 05:01:12;;;;;;;16.02;10.90;;;1.00;99.90;;;;;;5035510;28;20405;-33
2023/03/10 05:03:38;;;;;;;17.48;10.73;;;1.00;99.90;;;;;;5034938;28;20120;-33
2023/03/10 05:06:10;;;;;;;16.50;10.27;;;1.00;99.90;;;;;;5036787;28;20557;-37
2023/03/10 05:08:37;;;;;;;15.02;9.43;;;1.00;99.90;;;;;;5037039;28;20037;-35
2023/03/10 05:11:06;;;;;;;16.30;9.90;;;1.10;99.90;;;;;;5031843;28;20037;-35
2023/03/10 05:13:31;;;;;;;14.82;9.20;;;1.00;99.90;;;;;;5027688;28;20478;-35
2023/03/10 05:15:57;;;;;;;15.63;9.52;;;1.00;99.90;;;;;;5028917;28;20029;-35
2023/03/10 05:18:23;;;;;;;16.13;10.35;;;1.00;99.90;;;;;;5027752;28;20049;-35
2023/03/10 05:20:57;;;;;;;13.68;8.88;;;1.00;99.90;;;;;;5035757;28;20573;-35
2023/03/10 05:23:22;;;;;;;;;;;1.00;99.90;;;;;;5034569;28;20095;-35
2023/03/10 05:25:48;;;;;;;14.25;8.30;;;1.00;99.90;;;;;;5035040;28;19921;-35
2023/03/10 05:28:14;;;;;;;18.90;10.65;;;1.10;99.90;;;;;;5027615;28;20087;-36
2023/03/10 05:30:40;;;;;;;13.82;9.30;;;1.10;99.90;;;;;;5033555;28;20048;-36
2023/03/10 05:33:05;;;;;;;14.23;9.02;;;1.10;99.90;;;;;;5026778;28;20049;-35
2023/03/10 05:35:31;;;;;;;14.20;9.30;;;1.00;99.90;;;;;;5023879;28;20041;-36
2023/03/10 05:37:57;;;;;;;14.35;9.10;;;1.00;99.90;;;;;;5034068;28;20029;-35
2023/03/10 05:40:22;;;;;;;14.88;9.32;;;1.10;99.90;;;;;;5025506;28;20041;-35
2023/03/10 05:42:49;;;;;;;14.38;8.88;;;1.10;99.90;;;;;;5042656;28;20490;-36
2023/03/10 05:45:15;;;;;;;13.35;8.93;;;1.10;99.90;;;;;;5030638;28;20040;-36
2023/03/10 05:47:41;;;;;;;13.82;9.38;;;1.10;99.90;;;;;;5046517;28;20036;-35
2023/03/10 05:50:09;;;;;;;14.60;9.80;;;1.10;99.90;;;;;;5026296;28;20037;-35
2023/03/10 05:52:40;;;;;;;15.77;10.25;;;1.00;99.90;;;;;;5043156;28;20037;-35
2023/03/10 05:55:07;;;;;;;14.70;9.65;;;1.10;99.90;;;;;;5029954;28;20421;-35
2023/03/10 05:57:33;;;;;;;14.27;8.98;;;1.10;99.90;;;;;;5045396;28;20084;-35
2023/03/10 05:59:58;;;;;;;16.98;10.25;;;1.10;99.90;;;;;;5016264;28;20045;-36
2023/03/10 06:02:24;;;;;;;16.65;9.68;;;1.10;99.90;;;;;;5031775;28;20045;-36
2023/03/10 06:04:50;;;;;;;14.15;8.85;;;1.10;99.90;;;;;;5028757;28;20039;-35
2023/03/10 06:07:16;;;;;;;17.60;9.73;;;1.10;99.90;;;;;;5049519;28;20121;-35
2023/03/10 06:09:41;;;;;;;17.30;10.00;;;1.00;99.90;;;;;;5030851;28;20069;-35
2023/03/10 06:12:07;;;;;;;14.95;9.48;;;1.10;99.90;;;;;;5030738;28;20482;-35
2023/03/10 06:14:33;;;;;;;16.25;9.68;;;1.00;99.90;;;;;;5030623;28;20037;-35
2023/03/10 06:16:59;;;;;;;17.75;9.73;;;1.10;99.90;;;;;;5016744;28;20036;-35
2023/03/10 06:19:25;;;;;;;16.05;9.88;;;1.10;99.90;;;;;;5028821;28;20186;-34
2023/03/10 06:21:51;;;;;;;15.30;10.38;;;1.10;99.90;;;;;;5030650;28;20485;-34
2023/03/10 06:24:16;;;;;;;16.83;10.07;;;1.10;99.90;;;;;;5036970;28;20051;-34
2023/03/10 06:26:42;;;;;;;16.50;9.85;;;1.10;99.90;;;;;;5024722;28;20040;-34
2023/03/10 06:29:08;;;;;;;16.95;10.15;;;1.10;99.90;;;;;;5031385;28;20045;-34
2023/03/10 06:31:34;;;;;;;18.15;10.07;;;1.10;99.90;;;;;;5034011;28;20045;-34
2023/03/10 06:34:00;;;;;;;18.02;9.93;;;1.10;99.90;;;;;;5032579;28;20485;-34
2023/03/10 06:36:27;;;;;;;19.05;10.68;;;1.10;99.90;;;;;;5028255;28;20044;-34
2023/03/10 06:38:53;;;;;;;16.20;10.00;;;1.10;99.90;;;;;;5033387;28;20044;-34
2023/03/10 06:41:20;;;;;;;16.13;10.27;;;1.10;99.90;;;;;;5028907;28;20043;-34
2023/03/10 06:43:47;;;;;;;16.00;9.48;;;1.10;99.90;;;;;;5030749;28;20071;-34
2023/03/10 06:46:13;;;;;;;16.80;10.45;;;1.10;99.90;;;;;;5030172;28;20036;-34
2023/03/10 06:48:41;;;;;;;16.42;9.63;;;1.10;99.90;;;;;;5031498;28;20044;-34
2023/03/10 06:51:10;;;;;;;17.42;10.15;;;1.20;99.90;;;;;;5029885;28;20055;-34
2023/03/10 06:53:36;;;;;;;15.15;9.15;;;1.20;99.90;;;;;;5014112;28;20040;-34
2023/03/10 06:56:04;;;;;;;18.17;10.18;;;1.20;99.90;;;;;;5031547;28;20035;-34
2023/03/10 06:58:32;;;;;;;15.35;8.90;;;1.30;99.90;;;;;;5012618;28;20037;-34
2023/03/10 07:00:58;;;;;;;15.95;8.88;;;1.30;99.90;;;;;;5032398;28;20473;-34
2023/03/10 07:03:25;;;;;;;17.00;10.18;;;1.30;99.90;;;;;;5031289;28;20095;-34
2023/03/10 07:05:51;;;;;;;15.23;9.23;;;1.30;99.90;;;;;;5029872;28;20044;-34
2023/03/10 07:08:17;;;;;;;15.40;10.38;;;1.30;99.90;;;;;;5028713;28;20043;-34
2023/03/10 07:10:43;;;;;;;16.70;10.18;;;1.30;99.90;;;;;;5014610;28;20037;-34
2023/03/10 07:13:14;;;;;;;17.85;10.25;;;1.30;99.90;;;;;;5033498;28;20036;-34
2023/03/10 07:15:40;;;;;;;17.83;10.52;;;1.30;99.90;;;;;;5025554;28;20037;-34
2023/03/10 07:18:06;;;;;;;20.13;11.52;;;1.40;99.90;;;;;;5014145;28;20501;-33
2023/03/10 07:20:32;;;;;;;19.98;11.50;;;1.40;99.90;;;;;;5025317;28;20045;-34
2023/03/10 07:22:58;;;;;;;18.48;11.00;;;1.40;99.90;;;;;;5027324;28;20561;-34
2023/03/10 07:25:24;;;;;;;18.10;11.02;;;1.50;99.90;;;;;;5030192;28;20043;-34
2023/03/10 07:27:50;;;;;;;20.45;11.93;;;1.50;99.90;;;;;;5026893;28;20044;-34
2023/03/10 07:30:16;;;;;;;20.33;12.35;;;1.50;99.90;;;;;;5032125;28;20041;-34
2023/03/10 07:32:42;;;;;;;22.85;13.50;;;1.50;99.90;;;;;;5024832;28;20048;-34
2023/03/10 07:35:08;;;;;;;21.92;12.70;;;1.50;99.90;;;;;;5021668;28;20037;-34
2023/03/10 07:37:37;;;;;;;23.13;14.15;;;1.50;99.90;;;;;;5031909;28;20040;-34
2023/03/10 07:40:05;;;;;;;21.10;12.95;;;1.50;99.90;;;;;;5033641;28;20126;-34
2023/03/10 07:42:31;;;;;;;21.75;13.32;;;1.50;99.90;;;;;;5033508;28;20513;-34
2023/03/10 07:44:56;;;;;;;21.55;13.02;;;1.50;99.90;;;;;;5033227;28;20049;-34
2023/03/10 07:47:22;;;;;;;22.58;13.10;;;1.50;99.90;;;;;;5033037;28;20045;-34
2023/03/10 07:49:48;;;;;;;20.55;13.05;;;1.50;99.90;;;;;;5030012;28;20545;-34
2023/03/10 07:52:15;;;;;;;21.30;12.70;;;1.60;99.90;;;;;;5031998;28;20044;-34
2023/03/10 07:54:43;;;;;;;23.08;13.55;;;1.60;99.90;;;;;;5029137;28;20115;-34
2023/03/10 07:57:09;;;;;;;22.73;14.27;;;1.60;99.90;;;;;;5033271;28;20029;-34
2023/03/10 07:59:35;;;;;;;24.42;13.75;;;1.60;99.90;;;;;;5033554;28;20399;-34
2023/03/10 08:02:01;;;;;;;22.17;13.55;;;1.50;99.90;;;;;;5033340;28;20482;-34
2023/03/10 08:04:27;;;;;;;23.55;14.48;;;1.60;99.90;;;;;;5032285;28;20049;-34
2023/03/10 08:06:52;;;;;;;25.42;14.57;;;1.60;99.90;;;;;;5033977;28;20037;-34
2023/03/10 08:09:18;;;;;;;23.50;13.43;;;1.60;99.90;;;;;;5034553;28;20071;-35
2023/03/10 08:11:44;;;;;;;24.65;13.88;;;1.60;99.90;;;;;;5034108;28;20040;-35
2023/03/10 08:14:09;;;;;;;23.77;14.85;;;1.60;99.90;;;;;;5033237;28;20044;-35
2023/03/10 08:16:37;;;;;;;20.83;13.73;;;1.70;99.90;;;;;;5019980;28;20065;-35
2023/03/10 08:19:03;;;;;;;25.13;13.95;;;1.70;99.90;;;;;;5013848;28;20490;-35
2023/03/10 08:21:29;;;;;;;22.50;14.00;;;1.70;99.90;;;;;;5024484;28;20045;-35
2023/03/10 08:23:59;;;;;;;21.45;13.13;;;1.70;99.90;;;;;;5030786;28;20040;-35
2023/03/10 08:26:25;;;;;;;23.63;13.68;;;1.70;99.90;;;;;;5024620;28;20045;-34
2023/03/10 08:28:50;;;;;;;22.52;13.57;;;1.70;99.90;;;;;;5034147;28;20041;-34
2023/03/10 08:31:18;;;;;;;23.30;14.25;;;1.70;99.90;;;;;;5055088;28;20699;-34
2023/03/10 08:33:44;;;;;;;23.33;13.13;;;1.80;99.90;;;;;;5029917;28;20036;-34
2023/03/10 08:36:13;;;;;;;21.55;13.02;;;1.80;99.90;;;;;;5036850;28;20036;-34
2023/03/10 08:38:40;;;;;;;23.02;13.55;;;1.80;99.90;;;;;;5044873;28;20115;-34
2023/03/10 08:41:10;;;;;;;20.08;13.25;;;1.80;99.90;;;;;;5036447;28;20127;-34
2023/03/10 08:43:36;;;;;;;21.60;13.38;;;1.80;99.90;;;;;;5036160;28;20040;-35
2023/03/10 08:46:03;;;;;;;20.92;13.00;;;1.90;99.90;;;;;;5037642;28;20032;-35
2023/03/10 08:48:29;;;;;;;21.42;13.27;;;1.90;99.90;;;;;;5036837;28;20239;-35
2023/03/10 08:50:56;;;;;;;21.83;13.38;;;1.90;99.90;;;;;;5037174;28;20037;-37
2023/03/10 08:53:22;;;;;;;19.15;13.00;;;1.90;99.90;;;;;;5037501;28;20029;-35
2023/03/10 08:55:48;;;;;;;21.77;13.05;;;1.90;99.90;;;;;;5038013;28;20040;-35
2023/03/10 08:58:15;;;;;;;21.55;12.90;;;1.90;99.90;;;;;;5036903;28;20394;-35
2023/03/10 09:00:42;;;;;;;24.05;13.80;;;2.00;99.90;;;;;;5036307;28;20037;-35
2023/03/10 09:03:09;;;;;;;19.80;12.70;;;2.00;99.90;;;;;;5036685;28;20041;-35
2023/03/10 09:05:36;;;;;;;19.88;12.75;;;2.00;99.90;;;;;;5036495;28;20037;-35
2023/03/10 09:08:02;;;;;;;21.17;13.48;;;2.00;99.90;;;;;;5036705;28;20392;-34
2023/03/10 09:10:29;;;;;;;18.08;11.70;;;2.00;99.90;;;;;;5036635;28;20041;-35
2023/03/10 09:12:55;;;;;;;21.35;13.05;;;2.10;99.90;;;;;;5034853;28;20036;-34
2023/03/10 09:15:21;;;;;;;18.83;12.90;;;2.00;99.90;;;;;;5017712;28;20034;-35
2023/03/10 09:17:47;;;;;;;19.20;12.23;;;2.00;99.90;;;;;;5035706;28;20040;-35
2023/03/10 09:20:14;;;;;;;21.38;13.40;;;2.00;99.90;;;;;;5034223;28;20124;-35
2023/03/10 09:22:40;;;;;;;21.73;12.52;;;2.00;99.90;;;;;;5031263;28;20041;-35
2023/03/10 09:25:08;;;;;;;20.48;13.02;;;2.00;99.90;;;;;;5035835;28;20043;-34
2023/03/10 09:27:34;;;;;;;21.63;12.85;;;2.10;99.90;;;;;;5035920;28;20386;-35
2023/03/10 09:30:00;;;;;;;19.35;12.55;;;2.10;99.90;;;;;;5035580;28;20041;-35
2023/03/10 09:32:25;;;;;;;19.88;13.32;;;2.10;99.90;;;;;;5035861;28;20029;-35
2023/03/10 09:34:51;;;;;;;21.20;13.40;;;2.10;99.90;;;;;;5035327;28;20032;-35
2023/03/10 09:37:17;;;;;;;20.73;13.70;;;2.20;99.90;;;;;;5035795;28;20393;-34
2023/03/10 09:39:43;;;;;;;20.88;12.98;;;2.20;99.90;;;;;;5035289;28;20044;-40
2023/03/10 09:42:26;;;;;;;20.20;13.32;;;2.20;99.90;;;;;;5027023;28;20053;-35
2023/03/10 09:45:00;;;;;;;20.25;12.05;;;2.20;99.90;;;;;;5021222;28;20033;-35
2023/03/10 09:47:45;;;;;;;;;;;2.20;99.90;;;;;;5036394;28;20037;-35
2023/03/10 09:50:28;;;;;;;20.90;12.48;;;2.10;99.90;;;;;;5035764;28;20377;-35
2023/03/10 09:53:31;;;;;;;21.02;13.60;;;2.20;99.90;;;;;;5019293;28;20556;-35
2023/03/10 09:55:57;;;;;;;19.20;12.90;;;2.10;99.90;;;;;;5034932;28;20094;-35
2023/03/10 09:58:26;;;;;;;21.15;13.80;;;2.10;99.90;;;;;;5035236;28;20216;-35
2023/03/10 10:00:52;;;;;;;21.90;14.05;;;2.10;99.90;;;;;;5035594;28;20432;-34
2023/03/10 10:03:35;;;;;;;18.15;12.18;;;2.10;99.90;;;;;;5031929;28;20033;-35
2023/03/10 10:06:03;;;;;;;20.60;12.73;;;2.20;99.90;;;;;;5016038;28;20367;-35
2023/03/10 10:08:42;;;;;;;22.17;13.80;;;2.20;99.90;;;;;;5019608;28;20044;-35
2023/03/10 10:11:14;;;;;;;19.95;13.23;;;2.10;99.90;;;;;;5053285;28;20397;-35
2023/03/10 10:13:41;;;;;;;19.38;12.38;;;2.20;99.90;;;;;;5035368;28;20402;-35
2023/03/10 10:16:26;;;;;;;20.85;14.32;;;2.20;99.90;;;;;;5035179;28;20048;-35
2023/03/10 10:19:04;;;;;;;20.42;13.18;;;2.20;99.90;;;;;;5035391;28;20033;-34
2023/03/10 10:21:50;;;;;;;20.35;13.65;;;2.20;99.90;;;;;;5023265;28;20486;-35
2023/03/10 10:24:17;;;;;;;19.50;13.27;;;2.20;99.90;;;;;;5015577;28;20042;-35
2023/03/10 10:26:43;;;;;;;21.17;14.57;;;2.10;99.90;;;;;;5033073;28;20042;-35
2023/03/10 10:31:37;;;;;;;22.52;14.18;;;2.10;99.90;;;;;;5030966;28;20045;-32
2023/03/10 10:34:06;;;;;;;21.55;13.30;;;2.10;99.90;;;;;;5014772;28;20041;-32
2023/03/10 10:36:55;;;;;;;20.02;13.18;;;2.00;99.90;;;;;;5030358;28;20124;-33
2023/03/10 10:39:23;;;;;;;22.23;14.20;;;2.10;99.90;;;;;;5014893;28;20045;-32
2023/03/10 10:41:49;;;;;;;19.88;13.38;;;2.10;99.90;;;;;;5027758;28;20115;-32
2023/03/10 10:44:16;;;;;;;22.77;14.73;;;2.10;99.90;;;;;;5020743;28;20140;-32
2023/03/10 10:46:54;;;;;;;21.23;13.90;;;2.10;99.90;;;;;;5020723;28;20394;-32
2023/03/10 10:49:24;;;;;;;23.58;14.40;;;2.00;99.90;;;;;;5014900;28;20042;-32
2023/03/10 10:52:16;;;;;;;21.58;14.10;;;2.10;99.90;;;;;;5046956;28;20076;-32
2023/03/10 10:54:43;;;;;;;24.98;15.55;;;2.10;99.90;;;;;;4998709;28;20040;-32
2023/03/10 10:57:21;;;;;;;25.45;15.02;;;2.10;99.90;;;;;;5034361;28;20052;-33
2023/03/10 10:59:47;;;;;;;24.20;15.63;;;2.00;99.90;;;;;;5021806;28;20049;-32
2023/03/10 11:02:21;;;;;;;26.60;15.60;;;2.10;99.90;;;;;;5014639;28;20037;-32
2023/03/10 11:04:47;;;;;;;23.58;15.70;;;2.10;99.90;;;;;;5014339;28;20037;-32
2023/03/10 11:07:24;;;;;;;23.85;14.48;;;2.00;99.90;;;;;;5014894;28;20132;-32
2023/03/10 11:09:50;;;;;;;25.08;15.63;;;2.10;99.90;;;;;;5014689;28;20474;-32
2023/03/10 11:12:28;;;;;;;24.77;15.05;;;2.10;99.90;;;;;;5047706;28;20494;-33
2023/03/10 11:15:01;;;;;;;23.05;15.10;;;2.10;99.90;;;;;;5014184;28;20030;-33
2023/03/10 11:17:32;;;;;;;22.45;13.85;;;2.10;99.90;;;;;;5014641;28;20037;-32
2023/03/10 11:20:16;;;;;;;22.83;15.27;;;2.10;99.90;;;;;;5016255;28;20076;-32
2023/03/10 11:23:12;;;;;;;23.85;14.60;;;2.00;99.90;;;;;;5014140;28;20053;-33
2023/03/10 11:26:05;;;;;;;25.17;15.63;;;2.00;99.90;;;;;;5012324;28;20048;-32
2023/03/10 11:28:43;;;;;;;24.85;14.63;;;2.00;99.90;;;;;;5015595;28;20481;-32
2023/03/10 11:31:33;;;;;;;24.85;16.15;;;2.00;99.90;;;;;;5014310;28;20565;-32
2023/03/10 11:34:21;;;;;;;20.83;13.95;;;1.90;99.90;;;;;;5014187;28;20514;-33
2023/03/10 11:37:07;;;;;;;23.95;15.45;;;2.00;99.90;;;;;;5017077;28;20113;-33
2023/03/10 11:39:57;;;;;;;23.58;15.23;;;2.00;99.90;;;;;;5034082;28;20049;-33
2023/03/10 11:42:38;;;;;;;24.23;14.80;;;2.00;99.90;;;;;;5024307;28;20042;-33
2023/03/10 11:45:13;;;;;;;24.60;14.90;;;2.00;99.90;;;;;;5014313;28;20038;-32
2023/03/10 11:47:53;;;;;;;26.52;16.55;;;2.00;99.90;;;;;;5050620;28;20033;-35
2023/03/10 11:50:37;;;;;;;23.92;15.73;;;2.00;99.90;;;;;;5018484;28;20037;-33
2023/03/10 11:53:27;;;;;;;25.00;15.50;;;2.10;99.90;;;;;;5014211;28;20398;-34
2023/03/10 11:55:56;;;;;;;27.13;15.93;;;2.10;99.90;;;;;;5005575;28;20049;-33
2023/03/10 11:59:07;;;;;;;25.33;15.48;;;2.20;99.90;;;;;;4997639;28;20045;-34
2023/03/10 12:01:59;;;;;;;22.38;14.35;;;2.30;99.90;;;;;;5001797;28;20046;-33
2023/03/10 12:04:55;;;;;;;21.65;14.48;;;2.40;99.90;;;;;;5032288;28;20401;-33
2023/03/10 12:07:37;;;;;;;24.75;15.27;;;2.50;99.90;;;;;;5029013;28;20040;-36
2023/03/10 12:10:11;;;;;;;24.20;14.85;;;2.50;99.90;;;;;;5037780;28;20042;-33
2023/03/10 12:12:48;;;;;;;20.00;13.32;;;2.50;99.90;;;;;;5020897;28;20076;-32
2023/03/10 12:15:32;;;;;;;20.42;13.40;;;2.50;99.90;;;;;;5017990;28;20060;-32
2023/03/10 12:17:58;;;;;;;21.60;14.07;;;2.50;99.90;;;;;;5032135;28;20091;-32
2023/03/10 12:20:28;;;;;;;20.02;13.68;;;2.50;99.90;;;;;;5017881;28;20045;-33
2023/03/10 12:22:56;;;;;;;20.88;13.57;;;2.40;99.90;;;;;;5017264;28;20060;-32
2023/03/10 12:25:28;;;;;;;23.80;13.95;;;2.50;99.90;;;;;;5019920;28;20098;-32
2023/03/10 12:28:16;;;;;;;22.67;14.13;;;2.40;99.90;;;;;;5012571;28;20041;-33
2023/03/10 12:30:57;;;;;;;20.77;13.95;;;2.40;99.90;;;;;;5012199;28;20049;-33
2023/03/10 12:33:41;;;;;;;23.13;14.15;;;2.40;99.90;;;;;;5012573;28;20112;-33
2023/03/10 12:36:14;;;;;;;;;;;2.40;99.90;;;;;;5042547;28;20041;-32
2023/03/10 12:38:45;;;;;;;22.45;14.00;;;2.40;99.90;;;;;;5004773;28;19924;-33
2023/03/10 12:41:13;;;;;;;20.05;13.07;;;2.40;99.90;;;;;;5002033;28;20374;-33
2023/03/10 12:43:43;;;;;;;24.80;15.13;;;2.30;99.90;;;;;;5016081;28;20033;-33
2023/03/10 12:46:13;;;;;;;24.95;15.82;;;2.30;99.90;;;;;;5016010;28;20037;-33
2023/03/10 12:48:46;;;;;;;20.92;13.77;;;2.30;99.90;;;;;;5040872;28;20029;-32
2023/03/10 12:51:18;;;;;;;25.90;14.95;;;2.20;99.90;;;;;;5016856;28;20116;-32
2023/03/10 12:54:05;;;;;;;24.63;16.25;;;2.20;99.90;;;;;;5025468;28;20030;-32